Time;durP1;ratioP1;P1;durP2;ratioP2;P2;SDS_P1;SDS_P2;PMS_P1;PMS_P2;Temp;Humidity;BMP_temperature;BMP_pressure;BME280_temperature;BME280_humidity;BME280_pressure;Samples;Min_cycle;Max_cycle;Signal;HPM_P1;HPM_P2
2022/01/14 00:02:10;;;;;;;69.45;31.42;;;0.90;99.90;;;;;;5032976;28;20313;-73
2022/01/14 00:04:37;;;;;;;65.75;28.67;;;0.90;99.90;;;;;;5032484;28;20018;-72
2022/01/14 00:07:03;;;;;;;69.53;31.38;;;0.90;99.90;;;;;;5032761;28;20035;-72
2022/01/14 00:09:30;;;;;;;66.28;29.65;;;0.90;99.90;;;;;;5042985;28;20031;-73
2022/01/14 00:11:59;;;;;;;69.10;32.75;;;0.80;99.90;;;;;;5052382;28;20479;-73
2022/01/14 00:14:42;;;;;;;63.45;30.70;;;0.90;99.90;;;;;;5052253;28;20033;-72
2022/01/14 00:17:13;;;;;;;71.30;30.95;;;0.90;99.90;;;;;;5052239;28;20037;-73
2022/01/14 00:19:41;;;;;;;62.25;28.40;;;0.90;99.90;;;;;;5034110;28;20103;-73
2022/01/14 00:22:11;;;;;;;72.60;33.80;;;0.90;99.90;;;;;;5067438;28;20024;-73
2022/01/14 00:35:17;;;;;;;61.13;27.35;;;0.90;99.90;;;;;;5052098;28;20494;-72
2022/01/14 00:37:43;;;;;;;68.35;32.33;;;0.90;99.90;;;;;;5033961;28;20013;-72
2022/01/14 00:40:09;;;;;;;57.50;27.70;;;0.90;99.90;;;;;;5051817;28;20028;-72
2022/01/14 00:42:34;;;;;;;64.63;28.90;;;0.90;99.90;;;;;;5051763;28;20029;-73
2022/01/14 00:45:00;;;;;;;56.20;23.80;;;0.90;99.90;;;;;;5033814;28;20020;-72
2022/01/14 00:47:26;;;;;;;65.93;26.25;;;0.90;99.90;;;;;;5033742;28;20025;-73
2022/01/14 00:49:51;;;;;;;59.42;26.20;;;0.90;99.90;;;;;;5033543;28;20056;-73
2022/01/14 00:52:17;;;;;;;56.60;26.70;;;0.90;99.90;;;;;;5051558;28;20036;-73
2022/01/14 00:54:42;;;;;;;61.15;27.08;;;0.90;99.90;;;;;;5051393;28;20032;-72
2022/01/14 00:59:34;;;;;;;67.60;26.00;;;0.90;99.90;;;;;;5051660;28;20082;-73
2022/01/14 01:02:01;;;;;;;64.82;25.40;;;1.00;99.90;;;;;;5033397;28;20025;-73
2022/01/14 01:04:32;;;;;;;53.17;23.42;;;1.00;99.90;;;;;;5033406;28;20029;-73
2022/01/14 01:06:59;;;;;;;45.15;23.83;;;0.90;99.90;;;;;;5051374;28;20017;-72
2022/01/14 01:09:26;;;;;;;53.13;23.58;;;0.90;99.90;;;;;;5051351;28;20025;-72
2022/01/14 01:12:05;;;;;;;55.45;25.80;;;0.90;99.90;;;;;;5033372;28;20425;-73
2022/01/14 01:14:41;;;;;;;61.42;25.02;;;0.90;99.90;;;;;;5051203;28;20075;-72
2022/01/14 01:17:07;;;;;;;64.90;25.13;;;0.90;99.90;;;;;;5051279;28;20462;-72
2022/01/14 01:19:33;;;;;;;58.25;26.27;;;0.90;99.90;;;;;;5051179;28;20077;-73
2022/01/14 01:21:59;;;;;;;55.70;25.05;;;0.90;99.90;;;;;;5051238;28;20021;-72
2022/01/14 01:24:25;;;;;;;54.53;24.48;;;0.90;99.90;;;;;;5051086;28;20483;-72
2022/01/14 01:26:51;;;;;;;58.30;25.50;;;0.90;99.90;;;;;;5051090;28;20060;-74
2022/01/14 01:31:45;;;;;;;65.40;32.08;;;0.90;99.90;;;;;;5051020;28;20070;-72
2022/01/14 01:34:17;;;;;;;59.15;27.55;;;0.90;99.90;;;;;;5051162;28;20024;-73
2022/01/14 01:36:46;;;;;;;58.92;25.17;;;0.90;99.90;;;;;;5051014;28;20029;-72
2022/01/14 01:39:14;;;;;;;61.60;26.30;;;0.90;99.90;;;;;;5033160;28;20432;-72
2022/01/14 01:41:45;;;;;;;57.28;25.02;;;0.90;99.90;;;;;;5033173;28;20061;-73
2022/01/14 01:44:11;;;;;;;60.40;23.83;;;0.90;99.90;;;;;;5051045;28;20021;-73
2022/01/14 01:46:40;;;;;;;59.80;26.05;;;0.90;99.90;;;;;;5050954;28;20021;-73
2022/01/14 01:49:09;;;;;;;58.60;25.10;;;0.90;99.90;;;;;;5033206;28;20033;-72
2022/01/14 01:51:35;;;;;;;59.88;26.23;;;0.80;99.90;;;;;;5032860;28;20031;-73
2022/01/14 01:54:00;;;;;;;54.10;24.95;;;0.90;99.90;;;;;;5033074;28;20023;-73
2022/01/14 01:56:26;;;;;;;55.10;25.60;;;0.90;99.90;;;;;;5066233;28;20033;-72
2022/01/14 01:58:53;;;;;;;57.40;23.10;;;0.90;99.90;;;;;;5032977;28;20032;-73
2022/01/14 02:01:18;;;;;;;60.65;24.60;;;0.80;99.90;;;;;;5050802;28;20021;-72
2022/01/14 02:03:44;;;;;;;59.30;25.33;;;0.80;99.90;;;;;;5066194;28;20036;-73
2022/01/14 02:06:09;;;;;;;57.70;26.50;;;0.80;99.90;;;;;;5050741;28;20395;-72
2022/01/14 02:08:35;;;;;;;51.50;24.33;;;0.80;99.90;;;;;;5050702;28;20032;-73
2022/01/14 02:11:01;;;;;;;58.63;25.67;;;0.80;99.90;;;;;;5032856;28;20022;-72
2022/01/14 02:13:27;;;;;;;58.97;27.20;;;0.80;99.90;;;;;;5050732;28;20021;-73
2022/01/14 02:18:37;;;;;;;60.70;27.00;;;0.80;99.90;;;;;;5054814;28;20065;-73
2022/01/14 02:23:56;;;;;;;63.08;26.77;;;0.80;99.90;;;;;;5054654;28;20091;-73
2022/01/14 02:26:23;;;;;;;63.72;30.50;;;0.80;99.90;;;;;;5036508;28;20490;-73
2022/01/14 02:28:49;;;;;;;68.18;30.60;;;0.80;99.90;;;;;;5054265;28;20095;-73
2022/01/14 02:31:16;;;;;;;71.70;28.42;;;0.80;99.90;;;;;;5054126;28;20078;-73
2022/01/14 02:33:42;;;;;;;71.95;32.70;;;0.80;99.90;;;;;;5054161;28;20375;-73
2022/01/14 02:36:08;;;;;;;79.55;36.05;;;0.80;99.90;;;;;;5036171;28;20044;-73
2022/01/14 02:38:33;;;;;;;67.55;27.48;;;0.80;99.90;;;;;;5054105;28;20060;-73
2022/01/14 02:40:59;;;;;;;64.40;27.70;;;0.70;99.90;;;;;;5054035;28;20060;-73
2022/01/14 02:43:26;;;;;;;56.40;27.08;;;0.70;99.90;;;;;;5054080;28;20097;-73
2022/01/14 02:45:55;;;;;;;69.65;27.50;;;0.70;99.90;;;;;;5035902;28;20021;-73
2022/01/14 02:48:25;;;;;;;58.13;27.30;;;0.70;99.90;;;;;;5051737;28;20030;-72
2022/01/14 02:55:56;;;;;;;59.80;26.67;;;0.70;99.90;;;;;;5042587;28;20041;-73
2022/01/14 02:58:24;;;;;;;58.90;26.75;;;0.70;99.90;;;;;;5034255;28;20025;-73
2022/01/14 03:00:52;;;;;;;55.40;23.95;;;0.70;99.90;;;;;;5051990;28;20123;-72
2022/01/14 03:03:23;;;;;;;59.53;26.20;;;0.70;99.90;;;;;;5053612;28;20029;-72
2022/01/14 03:05:50;;;;;;;58.70;25.88;;;0.70;99.90;;;;;;5042646;28;20506;-72
2022/01/14 03:08:20;;;;;;;63.25;27.35;;;0.70;99.90;;;;;;5033665;28;20025;-73
2022/01/14 03:10:52;;;;;;;61.72;26.15;;;0.80;99.90;;;;;;5033498;28;20025;-72
2022/01/14 03:13:18;;;;;;;67.85;27.85;;;0.70;99.90;;;;;;5016543;28;20656;-73
2022/01/14 03:15:43;;;;;;;63.20;28.33;;;0.70;99.90;;;;;;5048577;28;20132;-73
2022/01/14 03:18:10;;;;;;;61.45;25.30;;;0.70;99.90;;;;;;5035513;28;20048;-73
2022/01/14 03:23:07;;;;;;;60.25;26.13;;;0.70;99.90;;;;;;5033643;28;20043;-73
2022/01/14 03:25:47;;;;;;;64.90;27.67;;;0.70;99.90;;;;;;5033068;28;20045;-72
2022/01/14 03:28:14;;;;;;;55.58;24.33;;;0.70;99.90;;;;;;5033359;28;20018;-72
2022/01/14 03:30:40;;;;;;;62.05;25.27;;;0.60;99.90;;;;;;5033202;28;20100;-72
2022/01/14 03:33:05;;;;;;;65.45;28.83;;;0.60;99.90;;;;;;5033220;28;20125;-73
2022/01/14 03:35:31;;;;;;;66.80;29.02;;;0.60;99.90;;;;;;5032981;28;20030;-73
2022/01/14 03:37:57;;;;;;;70.43;27.95;;;0.60;99.90;;;;;;5046918;28;20025;-74
2022/01/14 03:40:23;;;;;;;66.53;29.23;;;0.60;99.90;;;;;;5035023;28;20049;-73
2022/01/14 03:42:48;;;;;;;63.15;26.42;;;0.60;99.90;;;;;;5052882;28;20053;-73
2022/01/14 03:45:14;;;;;;;69.70;29.23;;;0.60;99.90;;;;;;5052802;28;20039;-73
2022/01/14 03:47:39;;;;;;;53.22;24.02;;;0.60;99.90;;;;;;5034698;28;20079;-73
2022/01/14 03:50:05;;;;;;;68.10;29.50;;;0.60;99.90;;;;;;5034854;28;20495;-73
2022/01/14 03:52:32;;;;;;;64.03;28.15;;;0.60;99.90;;;;;;5052641;28;20028;-72
2022/01/14 03:54:57;;;;;;;75.63;30.05;;;0.60;99.90;;;;;;5052623;28;20029;-73
2022/01/14 03:57:23;;;;;;;66.97;29.52;;;0.50;99.90;;;;;;5052565;28;20039;-73
2022/01/14 03:59:48;;;;;;;74.03;29.98;;;0.60;99.90;;;;;;5034484;28;20025;-73
2022/01/14 04:02:14;;;;;;;72.03;29.20;;;0.50;99.90;;;;;;5052585;28;20119;-73
2022/01/14 04:04:40;;;;;;;64.25;25.58;;;0.50;99.90;;;;;;5067778;28;20036;-73
2022/01/14 04:07:05;;;;;;;63.75;26.83;;;0.50;99.90;;;;;;5022148;28;20391;-73
2022/01/14 04:09:36;;;;;;;62.88;26.20;;;0.50;99.90;;;;;;5032932;28;20033;-73
2022/01/14 04:12:07;;;;;;;67.60;28.92;;;0.50;99.90;;;;;;5032549;28;20104;-72
2022/01/14 04:17:01;;;;;;;71.43;29.20;;;0.50;99.90;;;;;;5032513;28;20491;-73
2022/01/14 04:19:28;;;;;;;61.53;24.83;;;0.50;99.90;;;;;;5032332;28;20032;-72
2022/01/14 04:21:54;;;;;;;58.53;24.90;;;0.40;99.90;;;;;;5014430;28;20104;-73
2022/01/14 04:24:20;;;;;;;59.83;25.85;;;0.40;99.90;;;;;;5014420;28;20029;-73
2022/01/14 04:26:46;;;;;;;65.78;26.23;;;0.40;99.90;;;;;;5032149;28;20037;-73
2022/01/14 04:29:12;;;;;;;59.92;24.38;;;0.40;99.90;;;;;;5032160;28;20025;-74
2022/01/14 04:31:37;;;;;;;64.20;26.55;;;0.40;99.90;;;;;;5014281;28;20021;-73
2022/01/14 04:34:03;;;;;;;58.00;24.90;;;0.40;99.90;;;;;;5014338;28;20018;-73
2022/01/14 04:36:28;;;;;;;60.72;27.33;;;0.40;99.90;;;;;;5031825;28;20036;-73
2022/01/14 04:38:54;;;;;;;57.05;26.10;;;0.40;99.90;;;;;;5031435;28;20025;-73
2022/01/14 04:41:19;;;;;;;61.00;24.42;;;0.40;99.90;;;;;;5014187;28;20013;-73
2022/01/14 04:43:45;;;;;;;53.80;23.80;;;0.40;99.90;;;;;;5014089;28;20028;-73
2022/01/14 04:48:38;;;;;;;47.88;22.58;;;0.40;99.90;;;;;;5031823;28;20394;-73
2022/01/14 04:51:06;;;;;;;62.05;26.48;;;0.40;99.90;;;;;;5014261;28;20024;-73
2022/01/14 04:53:33;;;;;;;62.75;27.80;;;0.40;99.90;;;;;;5020784;28;20036;-73
2022/01/14 04:55:59;;;;;;;60.38;25.02;;;0.50;99.90;;;;;;5031518;28;20116;-73
2022/01/14 04:58:26;;;;;;;60.67;26.42;;;0.50;99.90;;;;;;5031723;28;20144;-72
2022/01/14 05:00:52;;;;;;;67.80;28.05;;;0.40;99.90;;;;;;5031508;28;20097;-72
2022/01/14 05:03:18;;;;;;;115.68;41.55;;;0.50;99.90;;;;;;5031589;28;20025;-72
2022/01/14 05:05:48;;;;;;;64.38;26.88;;;0.50;99.90;;;;;;5030072;28;20108;-73
2022/01/14 05:08:22;;;;;;;62.05;25.17;;;0.50;99.90;;;;;;5030635;28;20033;-73
2022/01/14 05:13:20;;;;;;;51.88;22.48;;;0.50;99.90;;;;;;5031838;28;20036;-73
2022/01/14 05:15:46;;;;;;;60.13;25.35;;;0.40;99.90;;;;;;5031199;28;20095;-72
2022/01/14 05:18:12;;;;;;;59.13;25.30;;;0.50;99.90;;;;;;5031383;28;20471;-73
2022/01/14 05:20:37;;;;;;;65.00;26.48;;;0.50;99.90;;;;;;5029911;28;20231;-73
2022/01/14 05:23:03;;;;;;;57.75;25.65;;;0.50;99.90;;;;;;5031624;28;20018;-73
2022/01/14 05:25:29;;;;;;;58.25;26.42;;;0.40;99.90;;;;;;5029947;28;20147;-73
2022/01/14 05:27:54;;;;;;;48.90;23.75;;;0.40;99.90;;;;;;5030017;28;20025;-73
2022/01/14 05:30:20;;;;;;;64.43;27.38;;;0.40;99.90;;;;;;5031192;28;20025;-73
2022/01/14 05:32:48;;;;;;;56.33;24.73;;;0.50;99.90;;;;;;5031578;28;20022;-73
2022/01/14 05:35:15;;;;;;;81.53;36.15;;;0.50;99.90;;;;;;5031155;28;20033;-73
2022/01/14 05:37:41;;;;;;;53.47;25.45;;;0.50;99.90;;;;;;5029789;28;20029;-73
2022/01/14 05:40:07;;;;;;;56.75;23.52;;;0.50;99.90;;;;;;5029806;28;20022;-72
2022/01/14 05:42:34;;;;;;;59.05;23.15;;;0.40;99.90;;;;;;5029720;28;20096;-73
2022/01/14 05:45:00;;;;;;;55.38;25.33;;;0.50;99.90;;;;;;5031066;28;20021;-73
2022/01/14 05:47:26;;;;;;;56.10;22.50;;;0.50;99.90;;;;;;5028599;28;20486;-72
2022/01/14 05:49:51;;;;;;;68.90;26.90;;;0.40;99.90;;;;;;5032276;28;20060;-73
2022/01/14 05:52:17;;;;;;;110.72;34.78;;;0.50;99.90;;;;;;5035143;28;20026;-73
2022/01/14 05:54:43;;;;;;;64.10;25.80;;;0.50;99.90;;;;;;5034949;28;20501;-73
2022/01/14 05:57:09;;;;;;;70.70;30.73;;;0.40;99.90;;;;;;5033605;28;20043;-73
2022/01/14 05:59:34;;;;;;;61.92;25.30;;;0.50;99.90;;;;;;5032615;28;20390;-73
2022/01/14 06:02:01;;;;;;;66.70;27.35;;;0.50;99.90;;;;;;5033408;28;20100;-73
2022/01/14 06:04:27;;;;;;;58.83;24.65;;;0.40;99.90;;;;;;5033042;28;20505;-72
2022/01/14 06:06:53;;;;;;;59.25;27.55;;;0.40;99.90;;;;;;5031813;28;20017;-73
2022/01/14 06:09:18;;;;;;;64.72;26.48;;;0.40;99.90;;;;;;5030878;28;20087;-73
2022/01/14 06:11:44;;;;;;;56.50;23.70;;;0.40;99.90;;;;;;5047855;28;20040;-73
2022/01/14 06:14:09;;;;;;;72.38;28.92;;;0.40;99.90;;;;;;5045517;28;20029;-72
2022/01/14 06:16:35;;;;;;;56.17;25.05;;;0.40;99.90;;;;;;5015760;28;20053;-73
2022/01/14 06:19:00;;;;;;;79.43;30.38;;;0.40;99.90;;;;;;5033618;28;20022;-73
2022/01/14 06:21:26;;;;;;;51.83;25.40;;;0.40;99.90;;;;;;5032922;28;20111;-72
2022/01/14 06:23:52;;;;;;;62.95;26.70;;;0.40;99.90;;;;;;5033584;28;20026;-72
2022/01/14 06:26:17;;;;;;;65.60;26.10;;;0.40;99.90;;;;;;5015336;28;20057;-73
2022/01/14 06:28:43;;;;;;;76.50;31.45;;;0.40;99.90;;;;;;5033853;28;20032;-72
2022/01/14 06:31:09;;;;;;;57.05;24.63;;;0.40;99.90;;;;;;5033396;28;20049;-72
2022/01/14 06:33:35;;;;;;;51.65;22.77;;;0.40;99.90;;;;;;5030455;28;20022;-72
2022/01/14 06:36:00;;;;;;;51.67;22.10;;;0.40;99.90;;;;;;5029827;28;20072;-73
2022/01/14 06:38:26;;;;;;;54.80;22.75;;;0.40;99.90;;;;;;5031302;28;20021;-72
2022/01/14 06:40:52;;;;;;;60.45;24.30;;;0.40;99.90;;;;;;5032165;28;20096;-72
2022/01/14 06:43:18;;;;;;;62.65;27.00;;;0.40;99.90;;;;;;5032825;28;20079;-73
2022/01/14 06:45:43;;;;;;;59.40;26.08;;;0.50;99.90;;;;;;5032607;28;20294;-73
2022/01/14 06:48:10;;;;;;;57.35;25.27;;;0.50;99.90;;;;;;5053672;28;20032;-73
2022/01/14 06:50:36;;;;;;;55.85;23.42;;;0.40;99.90;;;;;;5053054;28;20483;-72
2022/01/14 06:53:02;;;;;;;62.00;27.13;;;0.50;99.90;;;;;;5049361;28;20029;-75
2022/01/14 06:55:27;;;;;;;55.92;24.17;;;0.40;99.90;;;;;;5013418;28;20025;-72
2022/01/14 06:57:53;;;;;;;57.58;24.80;;;0.40;99.90;;;;;;5032097;28;20025;-73
2022/01/14 07:00:20;;;;;;;50.70;23.27;;;0.40;99.90;;;;;;5013690;28;20018;-72
2022/01/14 07:02:46;;;;;;;53.13;22.30;;;0.40;99.90;;;;;;5030459;28;20029;-74
2022/01/14 07:05:12;;;;;;;45.25;21.52;;;0.40;99.90;;;;;;5011814;28;20029;-73
2022/01/14 07:07:38;;;;;;;54.55;22.20;;;0.40;99.90;;;;;;5027136;28;20022;-73
2022/01/14 07:10:05;;;;;;;47.05;21.80;;;0.40;99.90;;;;;;5028717;28;20018;-73
2022/01/14 07:12:37;;;;;;;45.17;19.23;;;0.30;99.90;;;;;;5025312;28;20503;-73
2022/01/14 07:15:05;;;;;;;50.10;22.27;;;0.30;99.90;;;;;;5029252;28;20030;-73
2022/01/14 07:17:31;;;;;;;48.80;22.52;;;0.30;99.90;;;;;;5044481;28;20342;-73
2022/01/14 07:20:00;;;;;;;50.75;20.17;;;0.30;99.90;;;;;;5047014;28;20032;-73
2022/01/14 07:22:26;;;;;;;61.22;25.77;;;0.30;99.90;;;;;;5033220;28;20049;-73
2022/01/14 07:24:52;;;;;;;44.50;21.65;;;0.30;99.90;;;;;;5033234;28;20025;-73
2022/01/14 07:27:17;;;;;;;43.38;18.63;;;0.30;99.90;;;;;;5053896;28;20028;-73
2022/01/14 07:29:43;;;;;;;51.15;19.33;;;0.30;99.90;;;;;;5038033;28;20021;-73
2022/01/14 07:32:09;;;;;;;52.20;20.77;;;0.30;99.90;;;;;;5039244;28;20025;-73
2022/01/14 07:34:35;;;;;;;45.05;21.38;;;0.30;99.90;;;;;;5039211;28;20103;-73
2022/01/14 07:37:01;;;;;;;55.33;19.67;;;0.30;99.90;;;;;;5022272;28;20116;-73
2022/01/14 07:39:27;;;;;;;47.55;19.98;;;0.30;99.90;;;;;;5021931;28;20112;-73
2022/01/14 07:41:53;;;;;;;48.53;21.52;;;0.30;99.90;;;;;;5041590;28;20013;-73
2022/01/14 07:44:20;;;;;;;55.63;22.20;;;0.30;99.90;;;;;;5038219;28;20020;-73
2022/01/14 07:46:47;;;;;;;48.03;18.67;;;0.30;99.90;;;;;;5040163;28;20021;-74
2022/01/14 07:49:13;;;;;;;45.67;19.63;;;0.30;99.90;;;;;;5040747;28;20080;-73
2022/01/14 07:51:39;;;;;;;45.28;22.60;;;0.30;99.90;;;;;;5041951;28;20493;-73
2022/01/14 07:54:05;;;;;;;49.22;19.65;;;0.30;99.90;;;;;;5022729;28;20109;-73
2022/01/14 07:56:33;;;;;;;58.92;24.10;;;0.30;99.90;;;;;;5041919;28;20069;-73
2022/01/14 07:58:59;;;;;;;50.55;22.05;;;0.30;99.90;;;;;;5021173;28;20014;-73
2022/01/14 08:01:26;;;;;;;49.78;19.65;;;0.30;99.90;;;;;;5021785;28;20386;-73
2022/01/14 08:03:52;;;;;;;59.13;24.10;;;0.30;99.90;;;;;;5039749;28;20025;-73
2022/01/14 08:06:17;;;;;;;44.83;19.33;;;0.30;99.90;;;;;;5054820;28;20031;-73
2022/01/14 08:08:44;;;;;;;46.40;22.23;;;0.30;99.90;;;;;;5041090;28;20108;-73
2022/01/14 08:11:10;;;;;;;53.15;22.20;;;0.30;99.90;;;;;;5042047;28;20009;-73
2022/01/14 08:13:35;;;;;;;47.47;22.13;;;0.30;99.90;;;;;;5038536;28;20395;-73
2022/01/14 08:16:01;;;;;;;52.67;20.85;;;0.30;99.90;;;;;;5039871;28;20073;-73
2022/01/14 08:18:28;;;;;;;54.60;22.15;;;0.40;99.90;;;;;;5040164;28;20493;-74
2022/01/14 08:20:54;;;;;;;59.45;24.33;;;0.30;99.90;;;;;;5023096;28;20013;-73
2022/01/14 08:23:19;;;;;;;53.33;21.67;;;0.30;99.90;;;;;;5023366;28;20072;-73
2022/01/14 08:25:46;;;;;;;66.95;26.05;;;0.30;99.90;;;;;;5040385;28;20143;-73
2022/01/14 08:28:11;;;;;;;57.47;23.83;;;0.30;99.90;;;;;;5039725;28;20179;-73
2022/01/14 08:30:37;;;;;;;56.38;25.90;;;0.30;99.90;;;;;;5038241;28;20094;-73
2022/01/14 08:33:03;;;;;;;51.50;20.95;;;0.30;99.90;;;;;;5019816;28;20487;-73
2022/01/14 08:35:29;;;;;;;54.20;23.08;;;0.30;99.90;;;;;;5037749;28;20029;-73
2022/01/14 08:37:55;;;;;;;55.13;24.30;;;0.40;99.90;;;;;;5037310;28;20036;-73
2022/01/14 08:40:21;;;;;;;55.45;22.40;;;0.40;99.90;;;;;;5037886;28;20021;-73
2022/01/14 08:42:52;;;;;;;54.03;22.02;;;0.40;99.90;;;;;;5037598;28;20025;-73
2022/01/14 08:45:21;;;;;;;63.95;24.95;;;0.30;99.90;;;;;;5034700;28;20018;-73
2022/01/14 08:47:47;;;;;;;52.05;23.10;;;0.40;99.90;;;;;;5036045;28;20037;-73
2022/01/14 08:50:13;;;;;;;58.90;25.88;;;0.40;99.90;;;;;;5038459;28;20045;-73
2022/01/14 08:52:39;;;;;;;59.83;23.85;;;0.40;99.90;;;;;;5019847;28;20745;-73
2022/01/14 08:55:05;;;;;;;60.13;23.40;;;0.40;99.90;;;;;;5020551;28;20112;-73
2022/01/14 08:57:31;;;;;;;59.38;27.83;;;0.40;99.90;;;;;;5019593;28;20055;-73
2022/01/14 08:59:56;;;;;;;248.20;101.07;;;0.40;99.90;;;;;;5038520;28;20471;-73
2022/01/14 09:02:22;;;;;;;319.35;132.93;;;0.50;99.90;;;;;;5036995;28;20052;-74
2022/01/14 09:04:48;;;;;;;160.77;71.15;;;0.40;99.90;;;;;;5037336;28;20018;-73
2022/01/14 09:07:13;;;;;;;130.18;62.15;;;0.50;99.90;;;;;;5037228;28;20529;-73
2022/01/14 09:09:39;;;;;;;107.97;49.10;;;0.40;99.90;;;;;;5037466;28;20052;-73
2022/01/14 09:12:05;;;;;;;66.10;31.40;;;0.50;99.90;;;;;;5037641;28;20519;-73
2022/01/14 09:14:30;;;;;;;76.30;33.35;;;0.50;99.90;;;;;;5038744;28;20574;-73
2022/01/14 09:16:56;;;;;;;71.65;35.63;;;0.50;99.90;;;;;;5037752;28;20030;-74
2022/01/14 09:19:23;;;;;;;76.25;30.13;;;0.50;99.90;;;;;;5037181;28;20017;-73
2022/01/14 09:21:48;;;;;;;70.55;31.95;;;0.50;99.90;;;;;;5037697;28;20048;-73
2022/01/14 09:24:14;;;;;;;68.13;29.23;;;0.50;99.90;;;;;;5036945;28;20068;-73
2022/01/14 09:26:40;;;;;;;71.88;31.50;;;0.50;99.90;;;;;;5039602;28;20020;-74
2022/01/14 09:29:07;;;;;;;67.50;30.88;;;0.50;99.90;;;;;;5017489;28;20498;-73
2022/01/14 09:31:34;;;;;;;114.63;43.85;;;0.40;99.90;;;;;;5019424;28;20025;-73
2022/01/14 09:33:59;;;;;;;129.15;57.72;;;0.40;99.90;;;;;;5037446;28;20052;-73
2022/01/14 09:36:25;;;;;;;86.40;38.45;;;0.40;99.90;;;;;;5019303;28;20071;-73
2022/01/14 09:38:50;;;;;;;125.95;53.00;;;0.40;99.90;;;;;;5037509;28;20017;-74
2022/01/14 09:41:17;;;;;;;81.88;37.75;;;0.50;99.90;;;;;;5037011;28;20045;-73
2022/01/14 09:43:44;;;;;;;121.13;55.47;;;0.40;99.90;;;;;;5037611;28;20017;-73
2022/01/14 09:46:10;;;;;;;92.57;42.10;;;0.50;99.90;;;;;;5004761;28;20114;-73
2022/01/14 09:48:37;;;;;;;91.53;40.33;;;0.40;99.90;;;;;;5039159;28;20497;-73
2022/01/14 09:51:03;;;;;;;78.18;35.17;;;0.50;99.90;;;;;;5018153;28;20112;-73
2022/01/14 09:53:30;;;;;;;80.60;35.60;;;0.40;99.90;;;;;;5020069;28;20025;-73
2022/01/14 09:55:56;;;;;;;78.40;36.03;;;0.40;99.90;;;;;;5019817;28;20416;-73
2022/01/14 09:58:27;;;;;;;128.68;49.78;;;0.40;99.90;;;;;;5036927;28;20036;-73
2022/01/14 10:01:11;;;;;;;100.72;41.88;;;0.40;99.90;;;;;;5016481;28;20024;-73
2022/01/14 10:03:59;;;;;;;72.28;31.75;;;0.50;99.90;;;;;;5036639;28;20033;-73
2022/01/14 10:06:35;;;;;;;97.35;42.17;;;0.50;99.90;;;;;;5019775;28;20019;-73
2022/01/14 10:09:04;;;;;;;73.28;34.08;;;0.50;99.90;;;;;;5036958;28;20025;-73
2022/01/14 10:11:30;;;;;;;84.30;37.38;;;0.50;99.90;;;;;;5020189;28;20025;-73
2022/01/14 10:14:07;;;;;;;89.20;38.72;;;0.50;99.90;;;;;;5038688;28;20048;-73
2022/01/14 10:16:33;;;;;;;81.22;37.85;;;0.50;99.90;;;;;;5035678;28;20087;-74
2022/01/14 10:18:58;;;;;;;72.75;31.13;;;0.50;99.90;;;;;;5034941;28;20458;-74
2022/01/14 10:21:32;;;;;;;101.05;44.90;;;0.60;99.90;;;;;;5017184;28;20037;-73
2022/01/14 10:23:59;;;;;;;102.88;42.38;;;0.50;99.90;;;;;;5035124;28;20517;-74
2022/01/14 10:26:26;;;;;;;95.25;40.33;;;0.50;99.90;;;;;;5034807;28;20372;-73
2022/01/14 10:29:01;;;;;;;101.13;40.95;;;0.50;99.90;;;;;;5024546;28;20036;-73
2022/01/14 10:31:34;;;;;;;84.43;37.65;;;0.50;99.90;;;;;;5035735;28;20467;-73
2022/01/14 10:34:11;;;;;;;86.60;35.78;;;0.50;99.90;;;;;;5038667;28;20021;-73
2022/01/14 10:36:37;;;;;;;76.63;36.83;;;0.50;99.90;;;;;;5055982;28;20041;-73
2022/01/14 10:39:24;;;;;;;79.28;34.20;;;0.50;99.90;;;;;;5049451;28;20431;-73
2022/01/14 10:41:52;;;;;;;69.20;30.52;;;0.50;99.90;;;;;;5036421;28;20425;-73
2022/01/14 10:44:24;;;;;;;77.95;34.72;;;0.50;99.90;;;;;;5025896;28;20013;-73
2022/01/14 10:47:08;;;;;;;;;;;0.50;99.90;;;;;;5029177;28;20078;-74
2022/01/14 10:49:34;;;;;;;71.05;33.58;;;0.50;99.90;;;;;;5046974;28;19912;-73
2022/01/14 10:52:15;;;;;;;73.45;34.25;;;0.60;99.90;;;;;;5024991;28;20017;-74
2022/01/14 10:54:50;;;;;;;63.35;27.75;;;0.60;99.90;;;;;;5038603;28;20075;-73
2022/01/14 10:57:29;;;;;;;70.85;32.60;;;0.60;99.90;;;;;;5039688;28;20061;-74
2022/01/14 10:59:57;;;;;;;63.13;26.42;;;0.60;99.90;;;;;;5039125;28;20022;-73
2022/01/14 11:02:35;;;;;;;65.13;28.95;;;0.60;99.90;;;;;;5021098;28;20026;-73
2022/01/14 11:05:05;;;;;;;69.43;30.13;;;0.60;99.90;;;;;;5039121;28;20025;-73
2022/01/14 11:07:31;;;;;;;65.68;27.65;;;0.70;99.90;;;;;;5038731;28;20560;-73
2022/01/14 11:09:58;;;;;;;63.90;26.60;;;0.70;99.90;;;;;;5040708;28;20018;-73
2022/01/14 11:12:24;;;;;;;55.42;24.30;;;0.70;99.90;;;;;;5039552;28;20036;-74
2022/01/14 11:14:51;;;;;;;66.38;27.48;;;0.70;99.90;;;;;;5038887;28;20029;-73
2022/01/14 11:17:17;;;;;;;59.92;24.60;;;0.70;99.90;;;;;;5038536;28;20120;-73
2022/01/14 11:19:46;;;;;;;55.15;25.58;;;0.70;99.90;;;;;;5038760;28;20180;-73
2022/01/14 11:24:56;;;;;;;41.67;22.30;;;0.80;99.90;;;;;;5038564;28;20032;-73
2022/01/14 11:27:24;;;;;;;57.67;24.38;;;0.80;99.90;;;;;;5038571;28;20037;-73
2022/01/14 11:29:57;;;;;;;49.05;22.55;;;0.80;99.90;;;;;;5020804;28;20026;-73
2022/01/14 11:32:23;;;;;;;;;;;0.90;99.90;;;;;;5021066;28;20100;-73
2022/01/14 11:34:50;;;;;;;53.38;24.38;;;0.90;99.90;;;;;;5020155;28;21039;-73
2022/01/14 11:37:31;;;;;;;44.67;20.77;;;0.90;99.90;;;;;;5040989;28;20036;-73
2022/01/14 11:39:59;;;;;;;49.17;21.40;;;1.00;99.90;;;;;;5027494;28;20014;-73
2022/01/14 11:42:47;;;;;;;45.25;24.63;;;1.00;99.90;;;;;;5037081;28;20017;-73
2022/01/14 11:45:43;;;;;;;74.07;28.77;;;1.00;99.90;;;;;;5041409;28;20041;-73
2022/01/14 11:48:28;;;;;;;67.88;27.67;;;1.00;99.90;;;;;;5040165;28;20478;-73
2022/01/14 11:51:00;;;;;;;63.78;27.48;;;1.10;99.90;;;;;;5035010;28;20072;-73
2022/01/14 11:53:44;;;;;;;62.65;30.17;;;1.10;99.90;;;;;;5019582;28;20017;-73
2022/01/14 11:56:32;;;;;;;92.75;46.50;;;1.10;99.90;;;;;;5038151;28;20037;-73
2022/01/14 11:59:22;;;;;;;144.48;67.60;;;1.10;99.90;;;;;;5035691;28;20346;-73
2022/01/14 12:01:56;;;;;;;170.95;76.22;;;1.20;99.90;;;;;;5055327;28;20025;-74
2022/01/14 12:04:22;;;;;;;215.07;95.63;;;1.20;99.90;;;;;;5037661;28;20021;-73
2022/01/14 12:06:51;;;;;;;164.95;72.40;;;1.20;99.90;;;;;;5037531;28;20071;-73
2022/01/14 12:09:24;;;;;;;204.85;92.30;;;1.20;99.90;;;;;;5053686;28;20037;-73
2022/01/14 12:12:23;;;;;;;113.70;49.35;;;1.20;99.90;;;;;;5037629;28;20071;-73
2022/01/14 12:14:57;;;;;;;111.18;45.65;;;1.20;99.90;;;;;;5011975;28;20124;-73
2022/01/14 12:17:35;;;;;;;129.70;57.03;;;1.20;99.90;;;;;;5045819;28;20029;-73
2022/01/14 12:20:16;;;;;;;139.95;66.80;;;1.20;99.90;;;;;;5015360;28;20028;-73
2022/01/14 12:23:03;;;;;;;109.43;49.00;;;1.20;99.90;;;;;;5048183;28;20045;-73
2022/01/14 12:25:38;;;;;;;83.88;35.55;;;1.20;99.90;;;;;;5019493;28;20048;-74
2022/01/14 12:28:21;;;;;;;54.08;23.50;;;1.20;99.90;;;;;;5042420;28;20020;-73
2022/01/14 12:30:57;;;;;;;87.95;34.10;;;1.20;99.90;;;;;;5044442;28;20021;-73
2022/01/14 12:33:45;;;;;;;53.50;24.95;;;1.30;99.90;;;;;;5038990;28;20022;-73
2022/01/14 12:36:14;;;;;;;51.72;26.23;;;1.30;99.90;;;;;;5040381;28;20037;-73
2022/01/14 12:38:41;;;;;;;57.80;28.98;;;1.30;99.90;;;;;;5036705;28;20036;-73
2022/01/14 12:41:18;;;;;;;42.22;20.27;;;1.30;99.90;;;;;;5019152;28;20029;-73
2022/01/14 12:43:55;;;;;;;58.67;24.38;;;1.30;99.90;;;;;;5019073;28;20025;-74
2022/01/14 12:49:10;;;;;;;51.72;24.70;;;1.40;99.90;;;;;;5038064;28;20406;-73
2022/01/14 12:51:37;;;;;;;98.78;43.88;;;1.30;99.90;;;;;;5009451;28;20025;-73
2022/01/14 12:54:07;;;;;;;67.72;27.88;;;1.40;99.90;;;;;;5025406;28;20478;-73
2022/01/14 12:56:35;;;;;;;91.15;33.03;;;1.40;99.90;;;;;;5043806;28;20037;-73
2022/01/14 12:59:01;;;;;;;55.50;25.70;;;1.40;99.90;;;;;;5039145;28;20416;-73
2022/01/14 13:01:33;;;;;;;59.20;27.52;;;1.30;99.90;;;;;;5057779;28;20097;-73
2022/01/14 13:04:03;;;;;;;51.67;26.38;;;1.40;99.90;;;;;;5023820;28;20055;-73
2022/01/14 13:06:43;;;;;;;51.03;24.30;;;1.40;99.90;;;;;;5040844;28;20552;-73
2022/01/14 13:09:09;;;;;;;58.55;26.65;;;1.40;99.90;;;;;;5036878;28;20545;-73
2022/01/14 13:11:49;;;;;;;53.78;24.10;;;1.40;99.90;;;;;;5039865;28;20013;-74
2022/01/14 13:14:19;;;;;;;54.13;26.70;;;1.40;99.90;;;;;;5041559;28;20028;-73
2022/01/14 13:16:51;;;;;;;43.78;20.58;;;1.40;99.90;;;;;;5036941;28;20060;-74
2022/01/14 13:19:30;;;;;;;44.13;23.67;;;1.40;99.90;;;;;;5036399;28;20017;-73
2022/01/14 13:21:57;;;;;;;46.38;20.75;;;1.40;99.90;;;;;;5050705;28;20036;-73
2022/01/14 13:24:29;;;;;;;42.65;22.33;;;1.40;99.90;;;;;;5035918;28;20033;-73